sensor_id;sensor_type;location;lat;lon;timestamp;pressure;altitude;pressure_sealevel;temperature
60731;BMP280;46580;52.114;11.674;2022-10-31T00:02:22;101363.63;;;11.50
60731;BMP280;46580;52.114;11.674;2022-10-31T00:04:47;101366.22;;;11.50
60731;BMP280;46580;52.114;11.674;2022-10-31T00:07:13;101377.84;;;11.55
60731;BMP280;46580;52.114;11.674;2022-10-31T00:09:38;101370.66;;;11.48
60731;BMP280;46580;52.114;11.674;2022-10-31T00:12:04;101379.09;;;11.50
60731;BMP280;46580;52.114;11.674;2022-10-31T00:14:30;101363.84;;;11.47
60731;BMP280;46580;52.114;11.674;2022-10-31T00:16:55;101369.81;;;11.47
60731;BMP280;46580;52.114;11.674;2022-10-31T00:19:21;101373.94;;;11.50
60731;BMP280;46580;52.114;11.674;2022-10-31T00:21:46;101364.66;;;11.47
60731;BMP280;46580;52.114;11.674;2022-10-31T00:24:12;101373.66;;;11.42
60731;BMP280;46580;52.114;11.674;2022-10-31T00:26:37;101374.16;;;11.47
60731;BMP280;46580;52.114;11.674;2022-10-31T00:29:03;101379.00;;;11.51
60731;BMP280;46580;52.114;11.674;2022-10-31T00:31:29;101380.53;;;11.53
60731;BMP280;46580;52.114;11.674;2022-10-31T00:33:54;101380.31;;;11.56
60731;BMP280;46580;52.114;11.674;2022-10-31T00:36:23;101387.34;;;11.54
60731;BMP280;46580;52.114;11.674;2022-10-31T00:38:49;101381.88;;;11.59
60731;BMP280;46580;52.114;11.674;2022-10-31T00:41:16;101390.25;;;11.50
60731;BMP280;46580;52.114;11.674;2022-10-31T00:43:45;101391.50;;;11.45
60731;BMP280;46580;52.114;11.674;2022-10-31T00:46:12;101397.69;;;11.42
60731;BMP280;46580;52.114;11.674;2022-10-31T00:48:40;101395.63;;;11.35
60731;BMP280;46580;52.114;11.674;2022-10-31T00:51:06;101396.63;;;11.33
60731;BMP280;46580;52.114;11.674;2022-10-31T00:53:31;101407.78;;;11.33
60731;BMP280;46580;52.114;11.674;2022-10-31T00:55:57;101401.19;;;11.29
60731;BMP280;46580;52.114;11.674;2022-10-31T00:58:22;101397.84;;;11.27
60731;BMP280;46580;52.114;11.674;2022-10-31T01:00:49;101402.84;;;11.30
60731;BMP280;46580;52.114;11.674;2022-10-31T01:03:22;101402.50;;;11.22
60731;BMP280;46580;52.114;11.674;2022-10-31T01:05:56;101404.44;;;11.19
60731;BMP280;46580;52.114;11.674;2022-10-31T01:08:22;101411.59;;;11.15
60731;BMP280;46580;52.114;11.674;2022-10-31T01:11:08;101405.50;;;11.16
60731;BMP280;46580;52.114;11.674;2022-10-31T01:13:34;101409.72;;;11.17
60731;BMP280;46580;52.114;11.674;2022-10-31T01:16:00;101407.75;;;11.21
60731;BMP280;46580;52.114;11.674;2022-10-31T01:18:27;101401.78;;;11.20
60731;BMP280;46580;52.114;11.674;2022-10-31T01:21:10;101406.84;;;11.22
60731;BMP280;46580;52.114;11.674;2022-10-31T01:23:36;101405.28;;;11.19
60731;BMP280;46580;52.114;11.674;2022-10-31T01:28:34;101412.72;;;11.12
60731;BMP280;46580;52.114;11.674;2022-10-31T01:31:01;101411.59;;;11.15
60731;BMP280;46580;52.114;11.674;2022-10-31T01:33:27;101412.72;;;11.12
60731;BMP280;46580;52.114;11.674;2022-10-31T01:35:53;101411.91;;;11.11
60731;BMP280;46580;52.114;11.674;2022-10-31T01:38:18;101414.97;;;11.16
60731;BMP280;46580;52.114;11.674;2022-10-31T01:40:44;101416.00;;;11.14
60731;BMP280;46580;52.114;11.674;2022-10-31T01:43:13;101419.50;;;11.13
60731;BMP280;46580;52.114;11.674;2022-10-31T01:45:39;101410.84;;;11.14
60731;BMP280;46580;52.114;11.674;2022-10-31T01:48:04;101415.19;;;11.13
60731;BMP280;46580;52.114;11.674;2022-10-31T01:50:36;101414.34;;;11.13
60731;BMP280;46580;52.114;11.674;2022-10-31T01:53:06;101425.69;;;11.22
60731;BMP280;46580;52.114;11.674;2022-10-31T01:55:36;101423.53;;;11.16
60731;BMP280;46580;52.114;11.674;2022-10-31T01:58:13;101420.03;;;11.17
60731;BMP280;46580;52.114;11.674;2022-10-31T02:00:40;101426.94;;;11.17
60731;BMP280;46580;52.114;11.674;2022-10-31T02:03:08;101422.91;;;11.13
60731;BMP280;46580;52.114;11.674;2022-10-31T02:05:34;101425.28;;;11.16
60731;BMP280;46580;52.114;11.674;2022-10-31T02:08:31;101431.69;;;11.23
60731;BMP280;46580;52.114;11.674;2022-10-31T02:10:59;101428.72;;;11.29
60731;BMP280;46580;52.114;11.674;2022-10-31T02:13:26;101434.69;;;11.29
60731;BMP280;46580;52.114;11.674;2022-10-31T02:15:55;101433.78;;;11.30
60731;BMP280;46580;52.114;11.674;2022-10-31T02:18:22;101433.53;;;11.33
60731;BMP280;46580;52.114;11.674;2022-10-31T02:23:45;101443.66;;;11.36
60731;BMP280;46580;52.114;11.674;2022-10-31T02:31:47;101450.66;;;11.34
60731;BMP280;46580;52.114;11.674;2022-10-31T02:34:25;101451.47;;;11.22
60731;BMP280;46580;52.114;11.674;2022-10-31T02:37:33;101458.47;;;11.08
60731;BMP280;46580;52.114;11.674;2022-10-31T02:40:08;101457.22;;;11.01
60731;BMP280;46580;52.114;11.674;2022-10-31T02:43:06;101452.25;;;10.98
60731;BMP280;46580;52.114;11.674;2022-10-31T02:45:41;101455.38;;;10.91
60731;BMP280;46580;52.114;11.674;2022-10-31T02:48:16;101452.47;;;10.96
60731;BMP280;46580;52.114;11.674;2022-10-31T02:50:49;101456.28;;;10.90
60731;BMP280;46580;52.114;11.674;2022-10-31T02:53:16;101461.44;;;10.90
60731;BMP280;46580;52.114;11.674;2022-10-31T02:55:48;101463.28;;;10.88
60731;BMP280;46580;52.114;11.674;2022-10-31T02:58:19;101462.38;;;10.89
60731;BMP280;46580;52.114;11.674;2022-10-31T03:08:43;101491.13;;;10.96
60731;BMP280;46580;52.114;11.674;2022-10-31T03:11:13;101484.81;;;10.87
60731;BMP280;46580;52.114;11.674;2022-10-31T03:16:52;101495.38;;;10.71
60731;BMP280;46580;52.114;11.674;2022-10-31T03:21:59;101494.66;;;10.69
60731;BMP280;46580;52.114;11.674;2022-10-31T03:24:31;101485.69;;;10.74
60731;BMP280;46580;52.114;11.674;2022-10-31T03:26:59;101495.56;;;10.68
60731;BMP280;46580;52.114;11.674;2022-10-31T03:29:28;101496.09;;;10.73
60731;BMP280;46580;52.114;11.674;2022-10-31T03:32:01;101502.28;;;10.70
60731;BMP280;46580;52.114;11.674;2022-10-31T03:34:28;101497.97;;;10.71
60731;BMP280;46580;52.114;11.674;2022-10-31T03:36:59;101508.25;;;10.71
60731;BMP280;46580;52.114;11.674;2022-10-31T03:39:27;101505.69;;;10.71
60731;BMP280;46580;52.114;11.674;2022-10-31T03:42:00;101504.75;;;10.72
60731;BMP280;46580;52.114;11.674;2022-10-31T03:44:29;101501.38;;;10.71
60731;BMP280;46580;52.114;11.674;2022-10-31T03:46:56;101510.97;;;10.81
60731;BMP280;46580;52.114;11.674;2022-10-31T03:49:22;101512.41;;;10.85
60731;BMP280;46580;52.114;11.674;2022-10-31T03:51:58;101508.28;;;10.83
60731;BMP280;46580;52.114;11.674;2022-10-31T03:54:44;101512.72;;;10.81
60731;BMP280;46580;52.114;11.674;2022-10-31T03:57:19;101519.81;;;10.77
60731;BMP280;46580;52.114;11.674;2022-10-31T03:59:51;101515.50;;;10.78
60731;BMP280;46580;52.114;11.674;2022-10-31T04:02:22;101520.53;;;10.79
60731;BMP280;46580;52.114;11.674;2022-10-31T04:04:53;101515.38;;;10.79
60731;BMP280;46580;52.114;11.674;2022-10-31T04:07:21;101512.81;;;10.79
60731;BMP280;46580;52.114;11.674;2022-10-31T04:09:50;101521.56;;;10.77
60731;BMP280;46580;52.114;11.674;2022-10-31T04:12:17;101515.25;;;10.69
60731;BMP280;46580;52.114;11.674;2022-10-31T04:14:45;101524.06;;;10.65
60731;BMP280;46580;52.114;11.674;2022-10-31T04:17:14;101514.81;;;10.62
60731;BMP280;46580;52.114;11.674;2022-10-31T04:19:41;101513.63;;;10.80
60731;BMP280;46580;52.114;11.674;2022-10-31T04:22:07;101517.78;;;10.82
60731;BMP280;46580;52.114;11.674;2022-10-31T04:24:32;101526.41;;;10.81
60731;BMP280;46580;52.114;11.674;2022-10-31T04:26:58;101538.22;;;10.97
60731;BMP280;46580;52.114;11.674;2022-10-31T04:29:23;101530.69;;;10.95
60731;BMP280;46580;52.114;11.674;2022-10-31T04:31:49;101529.09;;;10.92
60731;BMP280;46580;52.114;11.674;2022-10-31T04:34:14;101531.69;;;10.92
60731;BMP280;46580;52.114;11.674;2022-10-31T04:36:40;101532.63;;;10.91
60731;BMP280;46580;52.114;11.674;2022-10-31T04:39:05;101533.06;;;10.97
60731;BMP280;46580;52.114;11.674;2022-10-31T04:41:31;101537.06;;;10.89
60731;BMP280;46580;52.114;11.674;2022-10-31T04:43:56;101546.28;;;10.79
60731;BMP280;46580;52.114;11.674;2022-10-31T04:46:22;101544.09;;;10.74
60731;BMP280;46580;52.114;11.674;2022-10-31T04:48:48;101550.22;;;10.59
60731;BMP280;46580;52.114;11.674;2022-10-31T04:51:14;101554.09;;;10.52
60731;BMP280;46580;52.114;11.674;2022-10-31T04:53:39;101547.09;;;10.54
60731;BMP280;46580;52.114;11.674;2022-10-31T04:56:05;101541.88;;;10.56
60731;BMP280;46580;52.114;11.674;2022-10-31T04:58:30;101550.38;;;10.44
60731;BMP280;46580;52.114;11.674;2022-10-31T05:00:57;101560.47;;;10.47
60731;BMP280;46580;52.114;11.674;2022-10-31T05:03:22;101554.03;;;10.40
60731;BMP280;46580;52.114;11.674;2022-10-31T05:05:48;101561.81;;;10.52
60731;BMP280;46580;52.114;11.674;2022-10-31T05:08:14;101557.78;;;10.48
60731;BMP280;46580;52.114;11.674;2022-10-31T05:10:39;101558.72;;;10.47
60731;BMP280;46580;52.114;11.674;2022-10-31T05:13:05;101559.44;;;10.49
60731;BMP280;46580;52.114;11.674;2022-10-31T05:15:31;101568.47;;;10.42
60731;BMP280;46580;52.114;11.674;2022-10-31T05:17:57;101568.28;;;10.32
60731;BMP280;46580;52.114;11.674;2022-10-31T05:20:24;101563.16;;;10.18
60731;BMP280;46580;52.114;11.674;2022-10-31T05:22:52;101554.75;;;10.16
60731;BMP280;46580;52.114;11.674;2022-10-31T05:25:20;101566.56;;;10.19
60731;BMP280;46580;52.114;11.674;2022-10-31T05:27:47;101564.19;;;10.29
60731;BMP280;46580;52.114;11.674;2022-10-31T05:30:16;101555.78;;;10.40
60731;BMP280;46580;52.114;11.674;2022-10-31T05:32:47;101543.66;;;10.41
60731;BMP280;46580;52.114;11.674;2022-10-31T05:35:21;101560.47;;;10.47
60731;BMP280;46580;52.114;11.674;2022-10-31T05:37:47;101555.31;;;10.47
60731;BMP280;46580;52.114;11.674;2022-10-31T05:40:14;101559.63;;;10.46
60731;BMP280;46580;52.114;11.674;2022-10-31T05:42:41;101553.47;;;10.49
60731;BMP280;46580;52.114;11.674;2022-10-31T05:45:08;101551.38;;;10.41
60731;BMP280;46580;52.114;11.674;2022-10-31T05:47:34;101558.94;;;10.31
60731;BMP280;46580;52.114;11.674;2022-10-31T05:49:59;101560.13;;;10.25
60731;BMP280;46580;52.114;11.674;2022-10-31T05:52:25;101558.03;;;10.18
60731;BMP280;46580;52.114;11.674;2022-10-31T05:54:50;101552.88;;;10.18
60731;BMP280;46580;52.114;11.674;2022-10-31T05:57:16;101558.03;;;10.18
60731;BMP280;46580;52.114;11.674;2022-10-31T05:59:42;101557.19;;;10.18
60731;BMP280;46580;52.114;11.674;2022-10-31T06:02:07;101561.88;;;10.11
60731;BMP280;46580;52.114;11.674;2022-10-31T06:04:33;101572.56;;;10.05
60731;BMP280;46580;52.114;11.674;2022-10-31T06:06:58;101571.28;;;9.99
60731;BMP280;46580;52.114;11.674;2022-10-31T06:09:24;101573.47;;;9.91
60731;BMP280;46580;52.114;11.674;2022-10-31T06:11:49;101583.97;;;9.88
60731;BMP280;46580;52.114;11.674;2022-10-31T06:14:15;101582.31;;;10.01
60731;BMP280;46580;52.114;11.674;2022-10-31T06:16:40;101584.34;;;10.09
60731;BMP280;46580;52.114;11.674;2022-10-31T06:19:06;101571.34;;;10.11
60731;BMP280;46580;52.114;11.674;2022-10-31T06:21:31;101576.31;;;10.14
60731;BMP280;46580;52.114;11.674;2022-10-31T06:23:57;101572.00;;;10.14
60731;BMP280;46580;52.114;11.674;2022-10-31T06:26:22;101577.78;;;10.18
60731;BMP280;46580;52.114;11.674;2022-10-31T06:28:48;101575.84;;;10.21
60731;BMP280;46580;52.114;11.674;2022-10-31T06:31:14;101577.31;;;10.25
60731;BMP280;46580;52.114;11.674;2022-10-31T06:33:41;101586.31;;;10.32
60731;BMP280;46580;52.114;11.674;2022-10-31T06:36:07;101586.31;;;10.32
60731;BMP280;46580;52.114;11.674;2022-10-31T06:38:32;101589.72;;;10.32
60731;BMP280;46580;52.114;11.674;2022-10-31T06:41:02;101590.28;;;10.37
60731;BMP280;46580;52.114;11.674;2022-10-31T06:43:30;101601.16;;;10.54
60731;BMP280;46580;52.114;11.674;2022-10-31T06:45:56;101605.19;;;10.58
60731;BMP280;46580;52.114;11.674;2022-10-31T06:48:21;101618.19;;;10.57
60731;BMP280;46580;52.114;11.674;2022-10-31T06:50:47;101622.13;;;10.62
60731;BMP280;46580;52.114;11.674;2022-10-31T06:53:13;101630.38;;;10.67
60731;BMP280;46580;52.114;11.674;2022-10-31T06:55:41;101624.44;;;10.78
60731;BMP280;46580;52.114;11.674;2022-10-31T06:58:08;101618.78;;;10.99
60731;BMP280;46580;52.114;11.674;2022-10-31T07:00:34;101614.78;;;11.08
60731;BMP280;46580;52.114;11.674;2022-10-31T07:03:02;101624.88;;;11.24
60731;BMP280;46580;52.114;11.674;2022-10-31T07:05:28;101630.47;;;11.31
60731;BMP280;46580;52.114;11.674;2022-10-31T07:08:04;101636.41;;;11.45
60731;BMP280;46580;52.114;11.674;2022-10-31T07:10:31;101633.63;;;11.60
60731;BMP280;46580;52.114;11.674;2022-10-31T07:12:59;101635.00;;;11.89
60731;BMP280;46580;52.114;11.674;2022-10-31T07:15:26;101625.00;;;12.09
60731;BMP280;46580;52.114;11.674;2022-10-31T07:17:53;101629.09;;;12.36
60731;BMP280;46580;52.114;11.674;2022-10-31T07:20:21;101638.38;;;12.51
60731;BMP280;46580;52.114;11.674;2022-10-31T07:22:47;101636.13;;;12.82
60731;BMP280;46580;52.114;11.674;2022-10-31T07:25:13;101640.84;;;13.00
60731;BMP280;46580;52.114;11.674;2022-10-31T07:27:42;101636.88;;;13.06
60731;BMP280;46580;52.114;11.674;2022-10-31T07:30:09;101632.13;;;13.23
60731;BMP280;46580;52.114;11.674;2022-10-31T07:32:43;101642.84;;;13.30
60731;BMP280;46580;52.114;11.674;2022-10-31T07:35:11;101642.56;;;13.45
60731;BMP280;46580;52.114;11.674;2022-10-31T07:37:38;101644.13;;;13.47
60731;BMP280;46580;52.114;11.674;2022-10-31T07:40:05;101649.78;;;13.52
60731;BMP280;46580;52.114;11.674;2022-10-31T07:42:38;101649.53;;;13.55
60731;BMP280;46580;52.114;11.674;2022-10-31T07:45:05;101657.66;;;13.61
60731;BMP280;46580;52.114;11.674;2022-10-31T07:47:40;101642.66;;;13.66
60731;BMP280;46580;52.114;11.674;2022-10-31T07:50:07;101639.94;;;13.68
60731;BMP280;46580;52.114;11.674;2022-10-31T07:52:33;101643.47;;;13.67
60731;BMP280;46580;52.114;11.674;2022-10-31T07:54:59;101647.25;;;13.74
60731;BMP280;46580;52.114;11.674;2022-10-31T07:57:24;101638.09;;;13.80
60731;BMP280;46580;52.114;11.674;2022-10-31T07:59:50;101646.38;;;13.85
60731;BMP280;46580;52.114;11.674;2022-10-31T08:02:15;101649.69;;;13.87
60731;BMP280;46580;52.114;11.674;2022-10-31T08:04:44;101644.03;;;13.93
60731;BMP280;46580;52.114;11.674;2022-10-31T08:07:09;101651.56;;;13.96
60731;BMP280;46580;52.114;11.674;2022-10-31T08:09:35;101651.34;;;13.99
60731;BMP280;46580;52.114;11.674;2022-10-31T08:12:00;101648.16;;;14.06
60731;BMP280;46580;52.114;11.674;2022-10-31T08:14:27;101653.00;;;14.11
60731;BMP280;46580;52.114;11.674;2022-10-31T08:16:53;101648.75;;;14.10
60731;BMP280;46580;52.114;11.674;2022-10-31T08:19:19;101651.13;;;14.13
60731;BMP280;46580;52.114;11.674;2022-10-31T08:21:44;101643.09;;;14.15
60731;BMP280;46580;52.114;11.674;2022-10-31T08:24:10;101647.13;;;14.19
60731;BMP280;46580;52.114;11.674;2022-10-31T08:26:35;101647.13;;;14.19
60731;BMP280;46580;52.114;11.674;2022-10-31T08:29:01;101643.34;;;14.23
60731;BMP280;46580;52.114;11.674;2022-10-31T08:31:32;101647.22;;;14.29
60731;BMP280;46580;52.114;11.674;2022-10-31T08:33:59;101644.19;;;14.34
60731;BMP280;46580;52.114;11.674;2022-10-31T08:36:28;101644.78;;;14.38
60731;BMP280;46580;52.114;11.674;2022-10-31T08:38:58;101636.88;;;14.39
60731;BMP280;46580;52.114;11.674;2022-10-31T08:41:23;101641.81;;;14.42
60731;BMP280;46580;52.114;11.674;2022-10-31T08:43:49;101639.81;;;14.46
60731;BMP280;46580;52.114;11.674;2022-10-31T08:46:14;101636.19;;;14.48
60731;BMP280;46580;52.114;11.674;2022-10-31T08:48:40;101635.22;;;14.60
60731;BMP280;46580;52.114;11.674;2022-10-31T08:51:06;101636.72;;;14.62
60731;BMP280;46580;52.114;11.674;2022-10-31T08:53:32;101630.50;;;14.65
60731;BMP280;46580;52.114;11.674;2022-10-31T08:55:57;101633.34;;;14.62
60731;BMP280;46580;52.114;11.674;2022-10-31T08:58:25;101623.78;;;14.62
60731;BMP280;46580;52.114;11.674;2022-10-31T09:00:52;101626.38;;;14.62
60731;BMP280;46580;52.114;11.674;2022-10-31T09:03:23;101639.09;;;14.65
60731;BMP280;46580;52.114;11.674;2022-10-31T09:05:50;101628.47;;;14.79
60731;BMP280;46580;52.114;11.674;2022-10-31T09:08:16;101625.53;;;14.72
60731;BMP280;46580;52.114;11.674;2022-10-31T09:10:42;101626.66;;;14.90
60731;BMP280;46580;52.114;11.674;2022-10-31T09:13:10;101633.28;;;14.83
60731;BMP280;46580;52.114;11.674;2022-10-31T09:15:38;101635.28;;;14.90
60731;BMP280;46580;52.114;11.674;2022-10-31T09:18:05;101634.59;;;14.99
60731;BMP280;46580;52.114;11.674;2022-10-31T09:20:32;101632.94;;;14.98
60731;BMP280;46580;52.114;11.674;2022-10-31T09:23:21;101627.25;;;15.04
60731;BMP280;46580;52.114;11.674;2022-10-31T09:25:45;101630.66;;;15.15
60731;BMP280;46580;52.114;11.674;2022-10-31T09:28:13;101627.63;;;15.00
60731;BMP280;46580;52.114;11.674;2022-10-31T09:30:41;101623.28;;;15.00
60731;BMP280;46580;52.114;11.674;2022-10-31T09:33:11;101634.22;;;15.04
60731;BMP280;46580;52.114;11.674;2022-10-31T09:35:38;101633.66;;;15.00
60731;BMP280;46580;52.114;11.674;2022-10-31T09:38:09;101629.41;;;14.99
60731;BMP280;46580;52.114;11.674;2022-10-31T09:40:43;101625.59;;;15.03
60731;BMP280;46580;52.114;11.674;2022-10-31T09:46:20;101621.19;;;15.45
60731;BMP280;46580;52.114;11.674;2022-10-31T09:51:31;101612.59;;;15.64
60731;BMP280;46580;52.114;11.674;2022-10-31T09:54:12;101630.19;;;15.41
60731;BMP280;46580;52.114;11.674;2022-10-31T09:56:39;101627.06;;;15.27
60731;BMP280;46580;52.114;11.674;2022-10-31T09:59:10;101641.38;;;15.22
60731;BMP280;46580;52.114;11.674;2022-10-31T10:04:39;101632.13;;;15.28
60731;BMP280;46580;52.114;11.674;2022-10-31T10:07:35;101635.28;;;15.43
60731;BMP280;46580;52.114;11.674;2022-10-31T10:10:17;101626.03;;;15.49
60731;BMP280;46580;52.114;11.674;2022-10-31T10:13:12;101635.28;;;15.43
60731;BMP280;46580;52.114;11.674;2022-10-31T10:21:32;101631.38;;;15.37
60731;BMP280;46580;52.114;11.674;2022-10-31T10:32:49;101628.66;;;15.39
60731;BMP280;46580;52.114;11.674;2022-10-31T10:35:55;101626.44;;;15.34
60731;BMP280;46580;52.114;11.674;2022-10-31T10:41:01;101624.34;;;15.28
60731;BMP280;46580;52.114;11.674;2022-10-31T10:43:38;101638.28;;;15.27
60731;BMP280;46580;52.114;11.674;2022-10-31T10:46:26;101622.72;;;15.27
60731;BMP280;46580;52.114;11.674;2022-10-31T10:52:19;101627.28;;;15.35
60731;BMP280;46580;52.114;11.674;2022-10-31T10:57:31;101622.66;;;15.38
60731;BMP280;46580;52.114;11.674;2022-10-31T11:00:00;101613.19;;;15.48
60731;BMP280;46580;52.114;11.674;2022-10-31T11:02:30;101620.25;;;15.46
60731;BMP280;46580;52.114;11.674;2022-10-31T11:04:58;101608.75;;;15.59
60731;BMP280;46580;52.114;11.674;2022-10-31T11:07:24;101611.84;;;15.53
60731;BMP280;46580;52.114;11.674;2022-10-31T11:09:50;101609.13;;;15.55
60731;BMP280;46580;52.114;11.674;2022-10-31T11:12:31;101608.94;;;15.47
60731;BMP280;46580;52.114;11.674;2022-10-31T11:15:00;101598.66;;;15.45
60731;BMP280;46580;52.114;11.674;2022-10-31T11:17:33;101597.41;;;15.60
60731;BMP280;46580;52.114;11.674;2022-10-31T11:20:27;101594.22;;;15.57
60731;BMP280;46580;52.114;11.674;2022-10-31T11:23:16;101590.34;;;15.62
60731;BMP280;46580;52.114;11.674;2022-10-31T11:28:28;101587.25;;;15.77
60731;BMP280;46580;52.114;11.674;2022-10-31T11:31:11;101584.50;;;15.69
60731;BMP280;46580;52.114;11.674;2022-10-31T11:33:49;101580.56;;;16.24
60731;BMP280;46580;52.114;11.674;2022-10-31T11:36:33;101588.22;;;16.16
60731;BMP280;46580;52.114;11.674;2022-10-31T11:39:02;101587.03;;;16.00
60731;BMP280;46580;52.114;11.674;2022-10-31T11:41:31;101581.13;;;15.98
60731;BMP280;46580;52.114;11.674;2022-10-31T11:44:04;101584.50;;;16.09
60731;BMP280;46580;52.114;11.674;2022-10-31T11:47:03;101579.94;;;16.02
60731;BMP280;46580;52.114;11.674;2022-10-31T11:49:37;101578.94;;;16.23
60731;BMP280;46580;52.114;11.674;2022-10-31T11:52:28;101576.75;;;16.28
60731;BMP280;46580;52.114;11.674;2022-10-31T11:58:00;101573.66;;;16.04
60731;BMP280;46580;52.114;11.674;2022-10-31T12:00:36;101569.09;;;16.26
60731;BMP280;46580;52.114;11.674;2022-10-31T12:06:12;101562.53;;;16.22
60731;BMP280;46580;52.114;11.674;2022-10-31T12:08:39;101565.25;;;16.21
60731;BMP280;46580;52.114;11.674;2022-10-31T12:16:59;101560.00;;;16.12
60731;BMP280;46580;52.114;11.674;2022-10-31T12:19:35;101563.25;;;16.04
60731;BMP280;46580;52.114;11.674;2022-10-31T12:28:12;101545.84;;;16.25
60731;BMP280;46580;52.114;11.674;2022-10-31T12:34:00;101540.09;;;16.21
60731;BMP280;46580;52.114;11.674;2022-10-31T12:38:54;101537.56;;;16.11
60731;BMP280;46580;52.114;11.674;2022-10-31T12:44:06;101524.16;;;16.06
60731;BMP280;46580;52.114;11.674;2022-10-31T12:49:21;101522.09;;;16.00
60731;BMP280;46580;52.114;11.674;2022-10-31T12:54:56;101529.25;;;15.87
60731;BMP280;46580;52.114;11.674;2022-10-31T12:57:50;101519.56;;;16.09
60731;BMP280;46580;52.114;11.674;2022-10-31T13:00:36;101514.22;;;15.91
60731;BMP280;46580;52.114;11.674;2022-10-31T13:03:32;101504.06;;;15.79
60731;BMP280;46580;52.114;11.674;2022-10-31T13:06:04;101504.13;;;15.88
60731;BMP280;46580;52.114;11.674;2022-10-31T13:08:38;101511.44;;;15.74
60731;BMP280;46580;52.114;11.674;2022-10-31T13:11:17;101516.22;;;15.78
60731;BMP280;46580;52.114;11.674;2022-10-31T13:16:28;101504.03;;;15.69
60731;BMP280;46580;52.114;11.674;2022-10-31T13:19:00;101510.72;;;15.63
60731;BMP280;46580;52.114;11.674;2022-10-31T13:23:57;101499.69;;;15.70
60731;BMP280;46580;52.114;11.674;2022-10-31T13:26:42;101499.69;;;15.70
60731;BMP280;46580;52.114;11.674;2022-10-31T13:29:23;101502.06;;;15.82
60731;BMP280;46580;52.114;11.674;2022-10-31T13:31:50;101491.84;;;15.90
60731;BMP280;46580;52.114;11.674;2022-10-31T13:34:27;101500.41;;;15.81
60731;BMP280;46580;52.114;11.674;2022-10-31T13:42:22;101496.47;;;15.86
60731;BMP280;46580;52.114;11.674;2022-10-31T13:44:50;101500.03;;;15.65
60731;BMP280;46580;52.114;11.674;2022-10-31T13:47:28;101492.84;;;15.78
60731;BMP280;46580;52.114;11.674;2022-10-31T13:52:49;101495.03;;;15.73
60731;BMP280;46580;52.114;11.674;2022-10-31T13:58:04;101492.53;;;15.63
60731;BMP280;46580;52.114;11.674;2022-10-31T14:00:31;101483.47;;;15.57
60731;BMP280;46580;52.114;11.674;2022-10-31T14:03:00;101482.09;;;15.53
60731;BMP280;46580;52.114;11.674;2022-10-31T14:05:31;101485.41;;;15.55
60731;BMP280;46580;52.114;11.674;2022-10-31T14:08:01;101479.19;;;15.47
60731;BMP280;46580;52.114;11.674;2022-10-31T14:10:32;101470.13;;;15.62
60731;BMP280;46580;52.114;11.674;2022-10-31T14:13:13;101470.06;;;15.52
60731;BMP280;46580;52.114;11.674;2022-10-31T14:15:42;101464.22;;;15.60
60731;BMP280;46580;52.114;11.674;2022-10-31T14:18:37;101476.31;;;15.50
60731;BMP280;46580;52.114;11.674;2022-10-31T14:23:51;101471.97;;;15.50
60731;BMP280;46580;52.114;11.674;2022-10-31T14:28:52;101474.53;;;15.41
60731;BMP280;46580;52.114;11.674;2022-10-31T14:31:41;101465.50;;;15.36
60731;BMP280;46580;52.114;11.674;2022-10-31T14:34:26;101463.44;;;15.39
60731;BMP280;46580;52.114;11.674;2022-10-31T14:40:23;101451.38;;;15.29
60731;BMP280;46580;52.114;11.674;2022-10-31T14:50:56;101451.28;;;15.40
60731;BMP280;46580;52.114;11.674;2022-10-31T14:53:32;101440.81;;;15.41
60731;BMP280;46580;52.114;11.674;2022-10-31T14:55:59;101445.09;;;15.31
60731;BMP280;46580;52.114;11.674;2022-10-31T14:58:40;101429.63;;;15.50
60731;BMP280;46580;52.114;11.674;2022-10-31T15:01:30;101431.56;;;15.48
60731;BMP280;46580;52.114;11.674;2022-10-31T15:04:24;101436.47;;;15.51
60731;BMP280;46580;52.114;11.674;2022-10-31T15:07:14;101430.66;;;15.38
60731;BMP280;46580;52.114;11.674;2022-10-31T15:09:40;101430.66;;;15.38
60731;BMP280;46580;52.114;11.674;2022-10-31T15:14:58;101441.97;;;15.28
60731;BMP280;46580;52.114;11.674;2022-10-31T15:17:44;101440.19;;;15.28
60731;BMP280;46580;52.114;11.674;2022-10-31T15:20:20;101439.88;;;15.22
60731;BMP280;46580;52.114;11.674;2022-10-31T15:22:48;101431.09;;;15.14
60731;BMP280;46580;52.114;11.674;2022-10-31T15:25:21;101432.97;;;15.12
60731;BMP280;46580;52.114;11.674;2022-10-31T15:27:48;101431.44;;;15.09
60731;BMP280;46580;52.114;11.674;2022-10-31T15:30:19;101413.06;;;15.12
60731;BMP280;46580;52.114;11.674;2022-10-31T15:32:45;101414.81;;;15.12
60731;BMP280;46580;52.114;11.674;2022-10-31T15:35:23;101404.72;;;15.09
60731;BMP280;46580;52.114;11.674;2022-10-31T15:37:49;101403.59;;;15.02
60731;BMP280;46580;52.114;11.674;2022-10-31T15:40:17;101402.63;;;15.03
60731;BMP280;46580;52.114;11.674;2022-10-31T15:42:50;101401.97;;;15.10
60731;BMP280;46580;52.114;11.674;2022-10-31T15:48:02;101399.38;;;15.10
60731;BMP280;46580;52.114;11.674;2022-10-31T15:50:37;101388.47;;;15.07
60731;BMP280;46580;52.114;11.674;2022-10-31T15:53:06;101385.88;;;15.07
60731;BMP280;46580;52.114;11.674;2022-10-31T15:55:44;101391.56;;;15.01
60731;BMP280;46580;52.114;11.674;2022-10-31T15:58:12;101395.00;;;15.02
60731;BMP280;46580;52.114;11.674;2022-10-31T16:00:38;101395.00;;;15.02
60731;BMP280;46580;52.114;11.674;2022-10-31T16:05:45;101386.50;;;15.00
60731;BMP280;46580;52.114;11.674;2022-10-31T16:08:45;101393.91;;;15.04
60731;BMP280;46580;52.114;11.674;2022-10-31T16:16:57;101391.41;;;15.03
60731;BMP280;46580;52.114;11.674;2022-10-31T16:22:19;101390.88;;;14.99
60731;BMP280;46580;52.114;11.674;2022-10-31T16:24:49;101388.41;;;14.98